Time;durP1;ratioP1;P1;durP2;ratioP2;P2;SDS_P1;SDS_P2;PMS_P1;PMS_P2;Temp;Humidity;BMP_temperature;BMP_pressure;BME280_temperature;BME280_humidity;BME280_pressure;Samples;Min_cycle;Max_cycle;Signal;HPM_P1;HPM_P2
2021/12/10 00:01:53;;;;;;;37.88;22.30;;;6.90;82.50;;;;;;6035524;23;92401;-71
2021/12/10 00:04:29;;;;;;;42.35;22.05;;;6.90;82.30;;;;;;6035350;23;93067;-71
2021/12/10 00:07:00;;;;;;;42.95;23.63;;;6.80;82.80;;;;;;6034303;23;92878;-72
2021/12/10 00:09:41;;;;;;;35.33;22.75;;;6.80;82.50;;;;;;6035406;23;92430;-71
2021/12/10 00:12:13;;;;;;;37.53;20.90;;;6.80;82.80;;;;;;6034303;23;92395;-71
2021/12/10 00:14:41;;;;;;;30.27;19.67;;;6.80;82.50;;;;;;6035334;23;93038;-71
2021/12/10 00:17:11;;;;;;;39.15;23.30;;;6.70;82.90;;;;;;6058734;23;93991;-71
2021/12/10 00:19:45;;;;;;;39.45;22.23;;;6.70;83.00;;;;;;6036838;23;92513;-71
2021/12/10 00:22:20;;;;;;;41.00;23.52;;;6.70;83.00;;;;;;6037155;23;92355;-71
2021/12/10 00:24:50;;;;;;;39.83;22.52;;;6.70;82.90;;;;;;6035404;23;95426;-71
2021/12/10 00:27:28;;;;;;;36.05;20.60;;;6.70;83.30;;;;;;6036909;23;95121;-71
2021/12/10 00:30:05;;;;;;;36.72;21.98;;;6.70;83.30;;;;;;6037063;23;92732;-72
2021/12/10 00:32:39;;;;;;;37.92;20.98;;;6.70;83.00;;;;;;6036818;23;92361;-71
2021/12/10 00:35:16;;;;;;;42.95;23.70;;;6.70;83.20;;;;;;6036972;23;92997;-71
2021/12/10 00:37:43;;;;;;;48.08;27.15;;;6.70;83.10;;;;;;6036653;23;92813;-72
2021/12/10 00:40:12;;;;;;;38.53;23.25;;;6.70;83.20;;;;;;6036361;23;104159;-72
2021/12/10 00:42:39;;;;;;;37.75;21.95;;;6.70;83.50;;;;;;6036971;23;92555;-72
2021/12/10 00:45:10;;;;;;;36.28;19.75;;;6.80;83.20;;;;;;6036609;23;93153;-72
2021/12/10 00:47:37;;;;;;;38.50;21.75;;;6.70;83.40;;;;;;6036576;23;92928;-71
2021/12/10 00:50:24;;;;;;;36.00;21.45;;;6.70;83.30;;;;;;6035560;23;95078;-71
2021/12/10 00:52:53;;;;;;;44.05;21.77;;;6.70;83.40;;;;;;6036126;23;93947;-71
2021/12/10 00:55:23;;;;;;;35.58;22.67;;;6.70;83.60;;;;;;6036740;23;93069;-71
2021/12/10 00:57:51;;;;;;;44.58;23.42;;;6.70;84.00;;;;;;6036696;23;92738;-71
2021/12/10 01:00:23;;;;;;;38.60;20.77;;;6.70;83.40;;;;;;6036853;23;92358;-71
2021/12/10 01:02:50;;;;;;;34.63;22.20;;;6.70;83.50;;;;;;6036846;23;92510;-71
2021/12/10 01:05:19;;;;;;;36.70;20.33;;;6.60;83.80;;;;;;6036705;23;92722;-71
2021/12/10 01:07:47;;;;;;;37.83;21.52;;;6.60;84.00;;;;;;6036806;23;92876;-71
2021/12/10 01:10:54;;;;;;;40.40;23.02;;;6.70;83.80;;;;;;6036785;23;92344;-71
2021/12/10 01:13:28;;;;;;;38.28;20.77;;;6.70;83.50;;;;;;6035048;23;92880;-72
2021/12/10 01:23:38;;;;;;;46.88;23.65;;;6.70;83.90;;;;;;6035206;23;95471;-71
2021/12/10 01:27:35;;;;;;;33.17;19.70;;;6.80;83.40;;;;;;6034775;23;94099;-71
2021/12/10 01:30:05;;;;;;;36.28;22.65;;;6.80;83.50;;;;;;6010831;23;92948;-71
2021/12/10 01:32:34;;;;;;;35.83;20.48;;;6.80;83.20;;;;;;6010936;23;92388;-68
2021/12/10 01:35:04;;;;;;;35.85;20.60;;;6.80;82.80;;;;;;6035160;23;91897;-68
2021/12/10 01:37:31;;;;;;;33.30;19.15;;;6.90;83.10;;;;;;6036291;23;92938;-68
2021/12/10 01:39:58;;;;;;;35.92;20.45;;;6.90;82.50;;;;;;6010636;23;94209;-68
2021/12/10 01:44:58;;;;;;;35.30;21.45;;;6.90;82.60;;;;;;6036544;23;92442;-68
2021/12/10 01:47:33;;;;;;;33.10;19.30;;;6.90;82.60;;;;;;6036576;23;93053;-68
2021/12/10 01:50:00;;;;;;;34.05;20.70;;;6.90;82.60;;;;;;6010738;23;94134;-68
2021/12/10 01:52:27;;;;;;;30.25;20.05;;;6.90;82.40;;;;;;6010430;23;100045;-68
2021/12/10 01:54:58;;;;;;;29.80;19.10;;;6.80;82.50;;;;;;6010884;23;93024;-69
2021/12/10 01:57:30;;;;;;;33.33;18.52;;;6.80;82.40;;;;;;6010837;23;93165;-68
2021/12/10 01:59:58;;;;;;;35.42;19.60;;;6.80;82.40;;;;;;6036948;23;92760;-68
2021/12/10 02:02:29;;;;;;;35.05;19.45;;;6.80;82.20;;;;;;6010765;23;92528;-68
2021/12/10 02:04:56;;;;;;;32.28;20.15;;;6.70;82.40;;;;;;6036435;23;92386;-68
2021/12/10 02:07:26;;;;;;;35.13;20.35;;;6.70;82.30;;;;;;6035240;23;95380;-68
2021/12/10 02:09:54;;;;;;;30.80;19.73;;;6.70;82.40;;;;;;6058564;23;96674;-68
2021/12/10 02:12:22;;;;;;;34.25;19.70;;;6.70;82.50;;;;;;6036219;23;97986;-68
2021/12/10 02:14:58;;;;;;;33.92;18.13;;;6.70;82.10;;;;;;6036350;23;92335;-68
2021/12/10 02:17:32;;;;;;;31.50;17.98;;;6.70;82.10;;;;;;6010672;23;94928;-69
2021/12/10 02:20:02;;;;;;;;;;;6.70;82.20;;;;;;6036708;23;92806;-68
2021/12/10 02:22:29;;;;;;;24.33;16.55;;;6.60;82.70;;;;;;6012568;23;92451;-68
2021/12/10 02:24:56;;;;;;;29.40;18.48;;;6.70;82.60;;;;;;6010816;23;93234;-68
2021/12/10 02:27:23;;;;;;;27.95;17.48;;;6.70;82.00;;;;;;6010346;23;94204;-68
2021/12/10 02:29:50;;;;;;;32.42;17.55;;;6.70;82.10;;;;;;6010049;23;94514;-68
2021/12/10 02:32:17;;;;;;;28.27;17.25;;;6.70;81.90;;;;;;6009725;23;94860;-68
2021/12/10 02:34:46;;;;;;;33.15;17.67;;;6.80;81.90;;;;;;6010599;23;92452;-68
2021/12/10 02:37:13;;;;;;;26.88;17.67;;;6.80;81.80;;;;;;6058649;23;94104;-69
2021/12/10 02:39:40;;;;;;;28.02;17.63;;;6.80;81.20;;;;;;6009970;23;93948;-68
2021/12/10 02:42:07;;;;;;;21.35;15.55;;;6.80;81.30;;;;;;6035656;23;92383;-68
2021/12/10 02:44:34;;;;;;;28.75;14.85;;;6.80;81.80;;;;;;6010636;23;92455;-68
2021/12/10 02:47:03;;;;;;;26.73;15.85;;;6.80;81.10;;;;;;6010063;23;94648;-68
2021/12/10 02:49:30;;;;;;;27.52;16.40;;;6.80;81.10;;;;;;5987467;23;95743;-68
2021/12/10 02:51:57;;;;;;;25.65;15.27;;;6.70;81.00;;;;;;6058880;23;92842;-68
2021/12/10 02:54:33;;;;;;;21.27;14.70;;;6.80;80.90;;;;;;6031894;23;92706;-71
2021/12/10 02:57:07;;;;;;;25.58;14.55;;;6.80;81.80;;;;;;6033149;23;95880;-71
2021/12/10 02:59:35;;;;;;;;;;;6.80;81.30;;;;;;6036869;23;95153;-71
2021/12/10 03:02:06;;;;;;;21.67;13.30;;;6.70;81.50;;;;;;6085106;23;92322;-71
2021/12/10 03:04:34;;;;;;;21.25;13.00;;;6.80;80.80;;;;;;6034873;23;92454;-72
2021/12/10 03:07:08;;;;;;;21.25;13.93;;;6.80;80.50;;;;;;6035760;23;93057;-72
2021/12/10 03:09:35;;;;;;;25.27;12.85;;;6.80;80.00;;;;;;6035927;23;92960;-72
2021/12/10 03:12:02;;;;;;;18.65;12.82;;;6.80;80.00;;;;;;6035467;23;92333;-71
2021/12/10 03:14:33;;;;;;;18.80;11.75;;;6.80;80.20;;;;;;6036433;23;91843;-71
2021/12/10 03:17:05;;;;;;;29.58;12.57;;;6.80;79.70;;;;;;6035745;23;93229;-71
2021/12/10 03:19:32;;;;;;;19.13;12.13;;;6.70;79.80;;;;;;6035987;23;92895;-71
2021/12/10 03:22:00;;;;;;;22.02;12.32;;;6.70;80.10;;;;;;6034373;23;94783;-71
2021/12/10 03:24:28;;;;;;;17.95;12.35;;;6.70;79.90;;;;;;6034123;23;103812;-71
2021/12/10 03:26:58;;;;;;;21.77;12.13;;;6.70;80.20;;;;;;6035729;23;93005;-71
2021/12/10 03:29:27;;;;;;;23.90;12.95;;;6.70;80.60;;;;;;6035864;23;92655;-71
2021/12/10 03:31:56;;;;;;;25.27;13.45;;;6.70;80.40;;;;;;6035845;23;92352;-71
2021/12/10 03:34:23;;;;;;;21.77;12.68;;;6.70;79.90;;;;;;6035786;23;92444;-71
2021/12/10 03:36:52;;;;;;;22.27;12.07;;;6.70;80.30;;;;;;6034027;23;94146;-71
2021/12/10 03:39:23;;;;;;;23.80;14.27;;;6.60;80.30;;;;;;6036336;23;92868;-71
2021/12/10 03:41:53;;;;;;;25.00;12.73;;;6.60;80.50;;;;;;6035635;23;92367;-71
2021/12/10 03:44:20;;;;;;;22.90;14.07;;;6.70;80.80;;;;;;6036020;23;92366;-71
2021/12/10 03:46:47;;;;;;;25.92;14.98;;;6.70;80.70;;;;;;6034086;23;95438;-72
2021/12/10 03:49:16;;;;;;;25.52;15.15;;;6.70;81.00;;;;;;6034936;23;111306;-71
2021/12/10 03:51:43;;;;;;;21.75;13.75;;;6.80;80.70;;;;;;6035730;23;92952;-71
2021/12/10 03:54:11;;;;;;;24.00;14.25;;;6.80;80.20;;;;;;6036546;23;92340;-72
2021/12/10 03:56:39;;;;;;;26.30;13.75;;;6.80;80.30;;;;;;6036949;23;93241;-72
2021/12/10 03:59:10;;;;;;;22.70;13.85;;;6.80;79.60;;;;;;6036715;23;92777;-71
2021/12/10 04:01:42;;;;;;;24.17;14.68;;;6.80;79.70;;;;;;6037117;23;92391;-71
2021/12/10 04:04:19;;;;;;;22.67;14.70;;;6.80;80.10;;;;;;6037412;23;92292;-71
2021/12/10 04:06:48;;;;;;;36.08;16.45;;;6.80;80.30;;;;;;6036733;23;92386;-71
2021/12/10 04:09:15;;;;;;;29.02;15.65;;;6.70;80.50;;;;;;6010853;23;97507;-72
2021/12/10 04:11:43;;;;;;;24.45;15.48;;;6.70;81.20;;;;;;6035705;23;94729;-71
2021/12/10 04:14:11;;;;;;;25.38;15.75;;;6.70;79.90;;;;;;6036852;23;92409;-71
2021/12/10 04:16:39;;;;;;;24.17;15.75;;;6.70;80.00;;;;;;6036494;23;105157;-71
2021/12/10 04:19:11;;;;;;;25.45;16.98;;;6.70;80.50;;;;;;6011191;23;94788;-72
2021/12/10 04:21:41;;;;;;;22.67;15.48;;;6.70;80.40;;;;;;6037158;23;92366;-71
2021/12/10 04:24:11;;;;;;;25.23;13.95;;;6.70;80.50;;;;;;6011061;23;92385;-71
2021/12/10 04:26:38;;;;;;;23.17;16.38;;;6.70;80.00;;;;;;6036822;23;93090;-71
2021/12/10 04:29:06;;;;;;;22.27;15.93;;;6.60;80.30;;;;;;6036891;23;92907;-71
2021/12/10 04:31:33;;;;;;;25.98;16.33;;;6.60;80.00;;;;;;6036890;23;92771;-71
2021/12/10 04:34:00;;;;;;;20.70;14.23;;;6.60;80.20;;;;;;6034898;23;92267;-71
2021/12/10 04:36:28;;;;;;;19.50;14.60;;;6.60;80.00;;;;;;6035148;23;95306;-71
2021/12/10 04:38:55;;;;;;;23.05;15.40;;;6.60;80.00;;;;;;6036187;23;95146;-71
2021/12/10 04:41:24;;;;;;;26.60;15.38;;;6.60;80.60;;;;;;6010147;23;107343;-71
2021/12/10 04:43:51;;;;;;;28.52;17.92;;;6.50;80.50;;;;;;6010689;23;93642;-71
2021/12/10 04:46:19;;;;;;;26.80;18.92;;;6.50;81.30;;;;;;6010320;23;94123;-71
2021/12/10 04:48:54;;;;;;;29.83;20.00;;;6.50;81.00;;;;;;6036556;23;96771;-71
2021/12/10 04:51:24;;;;;;;27.17;18.77;;;6.50;80.90;;;;;;6036779;23;92344;-71
2021/12/10 04:53:52;;;;;;;25.42;18.27;;;6.40;80.70;;;;;;6036695;23;91695;-71
2021/12/10 04:56:20;;;;;;;27.02;19.20;;;6.30;81.20;;;;;;6036127;23;93976;-71
2021/12/10 04:58:48;;;;;;;29.73;18.83;;;6.30;80.70;;;;;;6036570;23;92854;-71
2021/12/10 05:01:15;;;;;;;22.13;13.90;;;6.30;81.60;;;;;;6035044;23;94701;-71
2021/12/10 05:03:43;;;;;;;26.25;18.73;;;6.20;81.60;;;;;;6036304;23;92821;-71
2021/12/10 05:06:10;;;;;;;23.58;16.60;;;6.20;81.40;;;;;;6035857;23;102805;-71
2021/12/10 05:08:38;;;;;;;28.20;18.25;;;6.20;81.30;;;;;;6036573;23;92884;-71
2021/12/10 05:11:08;;;;;;;25.48;17.80;;;6.20;81.80;;;;;;6036570;23;92829;-71
2021/12/10 05:13:37;;;;;;;27.10;17.40;;;6.20;81.30;;;;;;6036361;23;92415;-72
2021/12/10 05:16:05;;;;;;;29.80;18.77;;;6.10;80.70;;;;;;6036257;23;93907;-71
2021/12/10 05:18:37;;;;;;;28.40;17.95;;;6.10;80.70;;;;;;6036923;23;92678;-72
2021/12/10 05:21:09;;;;;;;26.85;17.30;;;6.00;81.30;;;;;;6036365;23;92336;-72
2021/12/10 05:23:37;;;;;;;31.92;18.92;;;6.00;80.90;;;;;;6036580;23;92304;-72
2021/12/10 05:26:06;;;;;;;26.60;18.65;;;6.00;81.20;;;;;;6034775;23;95769;-72
2021/12/10 05:28:33;;;;;;;23.70;18.15;;;5.90;81.30;;;;;;6010888;23;95125;-72
2021/12/10 05:31:01;;;;;;;24.23;15.75;;;5.90;80.80;;;;;;6036293;23;92375;-71
2021/12/10 05:33:29;;;;;;;23.02;15.07;;;5.70;82.20;;;;;;6035936;23;105397;-71
2021/12/10 05:36:01;;;;;;;24.02;18.35;;;5.70;82.10;;;;;;6010428;23;94175;-71
2021/12/10 05:38:29;;;;;;;24.15;18.25;;;5.70;81.80;;;;;;6036506;23;92745;-72
2021/12/10 05:40:56;;;;;;;19.40;12.07;;;5.70;81.10;;;;;;6036702;23;92824;-71
2021/12/10 05:43:23;;;;;;;19.52;14.88;;;5.60;81.40;;;;;;6036728;23;91699;-71
2021/12/10 05:45:51;;;;;;;23.35;15.27;;;5.50;81.60;;;;;;6036396;23;94951;-71
2021/12/10 05:48:20;;;;;;;21.48;15.48;;;5.40;82.00;;;;;;6010112;23;94039;-71
2021/12/10 05:50:47;;;;;;;18.77;12.80;;;5.30;82.10;;;;;;6057566;23;94887;-72
2021/12/10 05:53:14;;;;;;;18.50;13.85;;;5.30;82.30;;;;;;6035850;23;92539;-71
2021/12/10 05:55:42;;;;;;;23.95;16.58;;;5.20;82.20;;;;;;6036126;23;96116;-71
2021/12/10 05:58:10;;;;;;;22.92;16.77;;;5.20;82.50;;;;;;6036199;23;95409;-71
2021/12/10 06:00:44;;;;;;;23.25;16.00;;;5.10;81.90;;;;;;6036544;23;92810;-71
2021/12/10 06:03:11;;;;;;;22.02;15.13;;;5.10;82.70;;;;;;6036357;23;92336;-71
2021/12/10 06:05:41;;;;;;;25.17;16.83;;;5.00;82.50;;;;;;6036127;23;92453;-71
2021/12/10 06:08:09;;;;;;;22.08;16.15;;;5.00;82.50;;;;;;6036778;23;92860;-71
2021/12/10 06:10:38;;;;;;;21.10;16.00;;;4.90;82.70;;;;;;6036527;23;92328;-71
2021/12/10 06:13:06;;;;;;;20.75;15.23;;;4.80;83.00;;;;;;6036589;23;92442;-71
2021/12/10 06:15:33;;;;;;;21.10;14.63;;;4.70;83.80;;;;;;6034642;23;95301;-71
2021/12/10 06:18:00;;;;;;;21.00;14.63;;;4.70;84.20;;;;;;6010328;23;96373;-71
2021/12/10 06:20:34;;;;;;;19.65;13.23;;;4.60;83.70;;;;;;6036303;23;92394;-71
2021/12/10 06:23:01;;;;;;;21.23;14.68;;;4.60;83.70;;;;;;6036606;23;92290;-71
2021/12/10 06:25:30;;;;;;;18.88;13.73;;;4.60;83.70;;;;;;6036097;23;92898;-71
2021/12/10 06:27:57;;;;;;;46.47;32.40;;;4.50;84.30;;;;;;6035994;23;100296;-71
2021/12/10 06:30:30;;;;;;;59.65;33.47;;;4.40;83.50;;;;;;6011450;23;92504;-71
2021/12/10 06:32:59;;;;;;;20.98;12.68;;;4.40;83.90;;;;;;6011443;23;91714;-71
2021/12/10 06:35:29;;;;;;;19.65;14.25;;;4.40;83.90;;;;;;6035842;23;92928;-71
2021/12/10 06:37:57;;;;;;;26.63;18.42;;;4.30;84.20;;;;;;6036056;23;92901;-72
2021/12/10 06:40:27;;;;;;;40.90;36.92;;;4.30;83.90;;;;;;6034106;23;98373;-72
2021/12/10 06:42:55;;;;;;;45.55;39.58;;;4.30;84.30;;;;;;6010105;23;93404;-71
2021/12/10 06:45:27;;;;;;;17.50;14.23;;;4.30;84.40;;;;;;6035611;23;93106;-71
2021/12/10 06:47:58;;;;;;;22.67;19.98;;;4.20;84.80;;;;;;6035353;23;96144;-71
2021/12/10 06:50:29;;;;;;;19.52;14.60;;;4.20;84.30;;;;;;6036072;23;93202;-71
2021/12/10 06:52:59;;;;;;;18.17;11.70;;;4.20;84.20;;;;;;6014581;23;95531;-72
2021/12/10 06:55:28;;;;;;;18.92;12.98;;;4.20;84.10;;;;;;6035985;23;93495;-72
2021/12/10 06:57:55;;;;;;;20.83;12.18;;;4.10;84.00;;;;;;6036629;23;92713;-71
2021/12/10 07:00:30;;;;;;;19.50;12.32;;;4.10;84.00;;;;;;6036023;23;92318;-71
2021/12/10 07:02:59;;;;;;;17.38;11.25;;;4.10;84.40;;;;;;6036240;23;92432;-72
2021/12/10 07:05:26;;;;;;;15.02;11.55;;;4.00;84.40;;;;;;6032741;23;95426;-72
2021/12/10 07:07:54;;;;;;;25.63;19.85;;;4.00;84.40;;;;;;6035667;23;95235;-72
2021/12/10 07:10:21;;;;;;;15.80;11.40;;;4.00;85.30;;;;;;6035685;23;92415;-72
2021/12/10 07:12:48;;;;;;;15.88;12.77;;;4.00;84.60;;;;;;6034169;23;98905;-72
2021/12/10 07:15:16;;;;;;;18.15;13.38;;;4.00;84.90;;;;;;6035810;23;92912;-72
2021/12/10 07:17:48;;;;;;;15.10;11.18;;;4.00;84.60;;;;;;6035968;23;92953;-72
2021/12/10 07:20:20;;;;;;;15.13;11.02;;;4.00;84.30;;;;;;6035879;23;92310;-72
2021/12/10 07:22:47;;;;;;;13.45;10.18;;;4.00;84.20;;;;;;6036637;23;91672;-72
2021/12/10 07:25:14;;;;;;;17.23;11.70;;;4.00;84.30;;;;;;6035937;23;93076;-72
2021/12/10 07:27:41;;;;;;;14.57;11.18;;;4.00;84.20;;;;;;6036318;23;92694;-72
2021/12/10 07:30:09;;;;;;;14.25;9.90;;;4.00;84.00;;;;;;6035633;23;95229;-68
2021/12/10 07:32:37;;;;;;;13.57;10.48;;;3.90;83.80;;;;;;6037600;23;93319;-68
2021/12/10 07:35:06;;;;;;;16.17;10.05;;;3.90;83.80;;;;;;6036871;23;93022;-68
2021/12/10 07:37:33;;;;;;;12.82;10.50;;;3.90;83.70;;;;;;6036603;23;92775;-69
2021/12/10 07:40:01;;;;;;;12.38;9.27;;;3.90;83.80;;;;;;6036202;23;105387;-68
2021/12/10 07:42:28;;;;;;;15.50;11.10;;;3.90;83.90;;;;;;6035554;23;92396;-68
2021/12/10 07:44:56;;;;;;;13.60;9.38;;;3.90;84.10;;;;;;6036713;23;92983;-68
2021/12/10 07:47:23;;;;;;;15.80;9.82;;;3.90;83.70;;;;;;6037763;23;92882;-69
2021/12/10 07:49:50;;;;;;;13.38;9.73;;;3.90;83.90;;;;;;6037906;23;92432;-68
2021/12/10 07:52:25;;;;;;;15.07;9.52;;;4.00;84.20;;;;;;6037430;23;92443;-68
2021/12/10 07:54:52;;;;;;;13.75;9.77;;;4.00;83.40;;;;;;6035939;23;95566;-68
2021/12/10 07:57:20;;;;;;;13.75;9.73;;;4.00;83.60;;;;;;6037100;23;99878;-68
2021/12/10 07:59:49;;;;;;;15.18;10.45;;;4.00;83.20;;;;;;6037764;23;92851;-71
2021/12/10 08:02:19;;;;;;;14.32;8.60;;;4.00;83.10;;;;;;6036863;23;92384;-71
2021/12/10 08:04:46;;;;;;;13.05;8.80;;;4.00;82.80;;;;;;6037511;23;92305;-72
2021/12/10 08:07:13;;;;;;;13.55;9.27;;;4.00;82.90;;;;;;6011795;23;97345;-72
2021/12/10 08:09:42;;;;;;;16.20;9.40;;;4.00;82.60;;;;;;6037468;23;92872;-72
2021/12/10 08:12:10;;;;;;;13.15;8.90;;;4.00;82.80;;;;;;6012062;23;91692;-72
2021/12/10 08:14:37;;;;;;;13.52;8.65;;;4.00;82.60;;;;;;6037321;23;93269;-72
2021/12/10 08:17:04;;;;;;;12.35;8.52;;;4.00;82.60;;;;;;6011531;23;93999;-72
2021/12/10 08:19:32;;;;;;;13.65;8.68;;;4.00;82.60;;;;;;6058687;23;94870;-71
2021/12/10 08:21:59;;;;;;;12.57;8.45;;;4.00;82.70;;;;;;6012269;23;92463;-71
2021/12/10 08:24:26;;;;;;;13.48;8.27;;;4.00;82.50;;;;;;6037227;23;93161;-71
2021/12/10 08:26:53;;;;;;;12.57;8.57;;;4.00;82.20;;;;;;6037478;23;92732;-71
2021/12/10 08:29:21;;;;;;;11.27;7.60;;;4.10;82.20;;;;;;6036955;23;104532;-71
2021/12/10 08:31:48;;;;;;;15.38;8.85;;;4.10;82.20;;;;;;6037548;23;92463;-71
2021/12/10 08:34:15;;;;;;;10.77;8.35;;;4.10;82.10;;;;;;6037466;23;93074;-72
2021/12/10 08:36:42;;;;;;;13.55;9.43;;;4.10;82.00;;;;;;6037647;23;92774;-72
2021/12/10 08:39:12;;;;;;;13.48;8.88;;;4.10;82.20;;;;;;6037843;23;92887;-71
2021/12/10 08:41:40;;;;;;;13.27;9.68;;;4.10;82.10;;;;;;6037380;23;92401;-68
2021/12/10 08:44:09;;;;;;;11.50;8.75;;;4.10;82.20;;;;;;6035834;23;95296;-68
2021/12/10 08:46:37;;;;;;;13.57;9.73;;;4.10;82.20;;;;;;6035165;23;96314;-68
2021/12/10 08:49:05;;;;;;;14.25;10.13;;;4.10;82.20;;;;;;6037717;23;92324;-68
2021/12/10 08:51:37;;;;;;;13.15;9.02;;;4.10;82.40;;;;;;6036536;23;92362;-68
2021/12/10 08:54:04;;;;;;;12.35;9.00;;;4.20;82.40;;;;;;6037339;23;92927;-71
2021/12/10 08:56:31;;;;;;;14.23;9.18;;;4.30;82.20;;;;;;6011373;23;105014;-72
2021/12/10 08:59:00;;;;;;;13.63;9.13;;;4.30;82.00;;;;;;6037578;23;92303;-71
2021/12/10 09:01:31;;;;;;;11.85;9.70;;;4.30;81.90;;;;;;6037943;23;91718;-72
2021/12/10 09:03:59;;;;;;;13.07;8.68;;;4.40;81.80;;;;;;6037427;23;92907;-72
2021/12/10 09:06:31;;;;;;;14.30;9.63;;;4.40;82.10;;;;;;6037343;23;92750;-68
2021/12/10 09:08:58;;;;;;;13.65;9.57;;;4.40;82.10;;;;;;6036374;23;95190;-68
2021/12/10 09:11:26;;;;;;;11.40;8.35;;;4.50;81.70;;;;;;6037250;23;92408;-68
2021/12/10 09:14:11;;;;;;;13.00;8.23;;;4.50;81.60;;;;;;6037129;23;92946;-69
2021/12/10 09:16:38;;;;;;;15.00;8.90;;;4.60;82.40;;;;;;6037043;23;92547;-71
2021/12/10 09:19:11;;;;;;;15.77;8.27;;;4.70;81.60;;;;;;6037476;23;92313;-71
2021/12/10 09:21:40;;;;;;;15.50;8.60;;;4.70;81.10;;;;;;6037211;23;92391;-72
2021/12/10 09:24:09;;;;;;;11.43;8.10;;;4.70;80.90;;;;;;6037098;23;93466;-72
2021/12/10 09:26:40;;;;;;;12.70;8.93;;;4.80;80.90;;;;;;6037258;23;92707;-71
2021/12/10 09:29:10;;;;;;;16.52;9.65;;;4.80;80.60;;;;;;6037472;23;92324;-71
2021/12/10 09:31:39;;;;;;;9.82;7.35;;;4.80;80.60;;;;;;6037128;23;92473;-72
2021/12/10 09:34:06;;;;;;;11.75;8.15;;;4.90;80.70;;;;;;6034934;23;111714;-72
2021/12/10 09:36:33;;;;;;;11.00;7.70;;;4.90;80.70;;;;;;6036708;23;95173;-72
2021/12/10 09:39:02;;;;;;;10.93;7.95;;;4.90;80.00;;;;;;6036715;23;92443;-71
2021/12/10 09:41:29;;;;;;;11.77;8.30;;;5.00;79.90;;;;;;6037010;23;92387;-72
2021/12/10 09:43:56;;;;;;;12.68;7.90;;;5.00;79.90;;;;;;6034515;23;97778;-72
2021/12/10 09:46:24;;;;;;;12.82;8.57;;;5.00;79.60;;;;;;6036698;23;92821;-72
2021/12/10 09:48:51;;;;;;;12.60;8.65;;;5.10;79.70;;;;;;6011002;23;92566;-71
2021/12/10 09:51:40;;;;;;;9.45;7.68;;;5.10;79.90;;;;;;6037011;23;91696;-71
2021/12/10 09:54:11;;;;;;;11.07;8.18;;;5.20;79.00;;;;;;6035780;23;93095;-72
2021/12/10 09:56:42;;;;;;;10.77;7.15;;;5.30;79.10;;;;;;6036472;23;94735;-72
2021/12/10 09:59:09;;;;;;;9.63;6.30;;;5.30;78.90;;;;;;6010715;23;95163;-72
2021/12/10 10:01:42;;;;;;;8.55;6.78;;;5.40;78.40;;;;;;6011479;23;92440;-72
2021/12/10 10:04:10;;;;;;;9.65;6.70;;;5.40;78.30;;;;;;6037043;23;92974;-72
2021/12/10 10:06:43;;;;;;;8.23;5.93;;;5.50;78.30;;;;;;6059192;23;93852;-71
2021/12/10 10:09:14;;;;;;;12.00;6.33;;;5.50;77.90;;;;;;6037355;23;92508;-72
2021/12/10 10:11:45;;;;;;;8.65;6.93;;;5.60;77.20;;;;;;6036714;23;92331;-68
2021/12/10 10:14:12;;;;;;;8.02;5.90;;;5.60;76.90;;;;;;6036965;23;92928;-68
2021/12/10 10:16:43;;;;;;;7.60;6.35;;;5.70;76.60;;;;;;6011118;23;111075;-69
2021/12/10 10:19:14;;;;;;;;;;;5.70;76.40;;;;;;6037824;23;92397;-68
2021/12/10 10:21:48;;;;;;;7.63;5.90;;;5.70;75.60;;;;;;6038329;23;92481;-68
2021/12/10 10:24:17;;;;;;;15.23;11.35;;;5.70;76.50;;;;;;6035468;23;95432;-68
2021/12/10 10:26:49;;;;;;;11.48;10.25;;;5.80;76.60;;;;;;6035985;23;94027;-71
2021/12/10 10:29:21;;;;;;;9.13;8.27;;;5.80;75.50;;;;;;6036538;23;92683;-72
2021/12/10 10:31:57;;;;;;;7.43;6.53;;;5.80;75.10;;;;;;6036783;23;92546;-72
2021/12/10 10:34:25;;;;;;;11.50;7.57;;;5.80;74.70;;;;;;6037149;23;93446;-72
2021/12/10 10:36:53;;;;;;;7.50;6.57;;;5.90;75.00;;;;;;6036625;23;92802;-72
2021/12/10 10:39:24;;;;;;;14.25;12.95;;;5.90;74.70;;;;;;6059569;23;92723;-72
2021/12/10 10:41:55;;;;;;;9.52;8.13;;;5.90;74.70;;;;;;6036634;23;91607;-72
2021/12/10 10:44:24;;;;;;;8.75;6.03;;;6.00;75.30;;;;;;6037002;23;93061;-71
2021/12/10 10:46:55;;;;;;;6.53;5.60;;;6.00;75.90;;;;;;6036325;23;99975;-72
2021/12/10 10:49:42;;;;;;;6.90;4.70;;;6.10;75.50;;;;;;6035830;23;94821;-71
2021/12/10 10:52:14;;;;;;;7.53;6.35;;;6.20;74.70;;;;;;6037080;23;92384;-71
2021/12/10 10:54:42;;;;;;;7.95;6.20;;;6.20;74.10;;;;;;6035981;23;93004;-71
2021/12/10 10:57:26;;;;;;;6.78;5.65;;;6.30;73.70;;;;;;6036905;23;92808;-72
2021/12/10 10:59:57;;;;;;;9.07;5.30;;;6.30;73.00;;;;;;6011265;23;92502;-71
2021/12/10 11:02:48;;;;;;;10.75;6.03;;;6.30;73.40;;;;;;6036326;23;92630;-71
2021/12/10 11:05:17;;;;;;;6.72;5.57;;;6.30;72.50;;;;;;6036859;23;93023;-71
2021/12/10 11:07:49;;;;;;;9.70;5.57;;;6.30;72.60;;;;;;6011264;23;95106;-71
2021/12/10 11:10:26;;;;;;;7.97;5.32;;;6.30;72.40;;;;;;6011427;23;92752;-72
2021/12/10 11:12:53;;;;;;;8.15;6.00;;;6.30;72.10;;;;;;6036684;23;92375;-72
2021/12/10 11:15:20;;;;;;;8.25;6.05;;;6.30;72.00;;;;;;6035112;23;96615;-71
2021/12/10 11:17:51;;;;;;;8.00;5.97;;;6.30;72.60;;;;;;6035996;23;102392;-71
2021/12/10 11:20:32;;;;;;;7.93;4.95;;;6.40;72.10;;;;;;6036775;23;92287;-72
2021/12/10 11:23:06;;;;;;;7.30;5.18;;;6.40;72.40;;;;;;6036655;23;92404;-72
2021/12/10 11:25:41;;;;;;;8.07;4.60;;;6.40;72.60;;;;;;6036466;23;93065;-71
2021/12/10 11:28:20;;;;;;;6.35;5.32;;;6.50;72.40;;;;;;6036277;23;94758;-71
2021/12/10 11:30:52;;;;;;;6.63;5.45;;;6.60;71.50;;;;;;6011238;23;92793;-71
2021/12/10 11:33:22;;;;;;;8.30;5.18;;;6.60;71.00;;;;;;6037164;23;91710;-72
2021/12/10 11:35:56;;;;;;;17.55;8.65;;;6.60;70.90;;;;;;6036434;23;93051;-72
2021/12/10 11:38:31;;;;;;;37.80;17.42;;;6.70;70.20;;;;;;6036506;23;92632;-71
2021/12/10 11:41:08;;;;;;;45.78;18.38;;;6.70;71.20;;;;;;6034419;23;94707;-68
2021/12/10 11:43:52;;;;;;;175.73;61.40;;;6.70;70.60;;;;;;6036041;23;92353;-68
2021/12/10 11:49:12;;;;;;;23.45;21.33;;;6.80;70.10;;;;;;6036227;23;92837;-68
2021/12/10 11:51:44;;;;;;;7.85;4.40;;;6.80;70.80;;;;;;6003861;23;96013;-69
2021/12/10 11:54:32;;;;;;;8.73;4.70;;;6.90;69.50;;;;;;6021635;23;92316;-68
2021/12/10 11:57:02;;;;;;;9.27;5.07;;;6.90;69.10;;;;;;6034482;23;94278;-68
2021/12/10 11:59:36;;;;;;;13.75;12.57;;;6.90;68.80;;;;;;6036770;23;92626;-68
2021/12/10 12:02:16;;;;;;;5.80;5.25;;;6.90;69.80;;;;;;6010098;23;92466;-68
2021/12/10 12:04:46;;;;;;;7.45;4.45;;;6.90;69.20;;;;;;6035097;23;92375;-68
2021/12/10 12:07:16;;;;;;;7.75;4.43;;;6.90;68.50;;;;;;6009058;23;95404;-68
2021/12/10 12:10:07;;;;;;;6.05;3.90;;;7.00;68.60;;;;;;6036147;23;95315;-68
2021/12/10 12:12:47;;;;;;;7.50;4.13;;;7.00;69.20;;;;;;6024733;23;92459;-68
2021/12/10 12:15:27;;;;;;;6.93;4.47;;;7.10;67.70;;;;;;5989084;23;93038;-69
2021/12/10 12:17:59;;;;;;;7.57;4.53;;;7.10;68.30;;;;;;6037214;23;94523;-68
2021/12/10 12:20:46;;;;;;;7.47;4.47;;;7.20;68.10;;;;;;6037594;23;92725;-68
2021/12/10 12:26:08;;;;;;;8.55;5.22;;;7.20;67.30;;;;;;6037564;23;93998;-68
2021/12/10 12:28:56;;;;;;;10.50;5.05;;;7.20;67.40;;;;;;6035991;23;94367;-68
2021/12/10 12:31:36;;;;;;;8.95;5.43;;;7.20;67.00;;;;;;6037467;23;94064;-68
2021/12/10 12:34:08;;;;;;;9.00;5.10;;;7.10;67.60;;;;;;6010344;23;94832;-68
2021/12/10 12:36:50;;;;;;;8.18;4.82;;;7.10;67.70;;;;;;6037744;23;92425;-68
2021/12/10 12:39:30;;;;;;;11.50;9.63;;;7.10;67.60;;;;;;6037060;23;96389;-68
2021/12/10 12:41:59;;;;;;;14.23;11.57;;;7.10;67.10;;;;;;6037227;23;92925;-68
2021/12/10 12:44:34;;;;;;;7.38;5.15;;;7.00;67.60;;;;;;6036970;23;92322;-68
2021/12/10 12:47:31;;;;;;;6.13;4.10;;;6.90;68.20;;;;;;6037712;23;92655;-68
2021/12/10 12:50:07;;;;;;;8.50;4.72;;;6.90;67.70;;;;;;6037086;23;93161;-68
2021/12/10 12:52:55;;;;;;;7.10;4.38;;;6.90;67.90;;;;;;6037800;23;92840;-68
2021/12/10 12:55:56;;;;;;;5.82;4.35;;;6.90;68.20;;;;;;6011961;23;92396;-68
2021/12/10 12:58:30;;;;;;;5.85;5.18;;;6.90;68.70;;;;;;6037629;23;92319;-68
2021/12/10 13:01:15;;;;;;;6.55;4.00;;;6.80;68.70;;;;;;6035633;23;95284;-68
2021/12/10 13:03:58;;;;;;;6.60;4.32;;;6.80;68.60;;;;;;6037475;23;95174;-68
2021/12/10 13:06:52;;;;;;;6.50;4.18;;;6.80;68.50;;;;;;6037632;23;92388;-68
2021/12/10 13:09:30;;;;;;;10.15;8.25;;;6.70;68.90;;;;;;6037244;23;92410;-68
2021/12/10 13:14:35;;;;;;;6.47;4.40;;;6.70;69.10;;;;;;6037366;23;92725;-68
2021/12/10 13:17:16;;;;;;;5.18;4.28;;;6.70;69.20;;;;;;6037236;23;92390;-68
2021/12/10 13:19:43;;;;;;;8.57;4.63;;;6.70;69.30;;;;;;6012164;23;91708;-69
2021/12/10 13:22:15;;;;;;;8.32;4.25;;;6.70;69.30;;;;;;6010985;23;94082;-68